Time;durP1;ratioP1;P1;durP2;ratioP2;P2;SDS_P1;SDS_P2;PMS_P1;PMS_P2;Temp;Humidity;BMP_temperature;BMP_pressure;BME280_temperature;BME280_humidity;BME280_pressure;Samples;Min_cycle;Max_cycle;Signal;HPM_P1;HPM_P2
2021/03/06 00:10:46;;;;;;;6.80;1.40;;;;;;;-1.48;77.11;102305.22;6303668;22;20067;-86
2021/03/06 00:13:12;;;;;;;4.35;1.02;;;;;;;-1.01;78.16;102433.81;6305522;22;19992;-84
2021/03/06 00:41:27;;;;;;;4.30;1.10;;;;;;;-1.27;77.33;102331.38;6305504;22;20290;-84
2021/03/06 01:02:00;;;;;;;6.03;1.23;;;;;;;-1.35;77.81;102278.16;6302223;22;20067;-83
2021/03/06 01:04:25;;;;;;;8.02;1.30;;;;;;;-0.80;77.17;102326.03;6304146;22;20040;-82
2021/03/06 01:12:08;;;;;;;9.23;1.60;;;;;;;0.14;76.60;102431.69;6195289;23;20218;31
2021/03/06 01:32:38;;;;;;;8.57;2.60;;;;;;;-1.00;78.22;102247.91;6243205;23;20059;-83
2021/03/06 01:35:09;;;;;;;14.05;2.72;;;;;;;-0.05;77.22;102328.72;6243038;23;19997;-83
2021/03/06 01:37:37;;;;;;;8.10;3.22;;;;;;;-1.05;78.16;102220.09;6243670;23;19989;-84
2021/03/06 01:40:11;;;;;;;10.80;2.85;;;;;;;-0.39;77.71;102277.00;6242613;23;19997;-84
2021/03/06 01:53:00;;;;;;;16.27;4.15;;;;;;;0.09;75.92;102251.97;6212077;22;20012;-84
2021/03/06 02:16:28;;;;;;;13.98;4.93;;;;;;;0.35;77.91;102344.81;6227754;22;20065;-85
2021/03/06 02:19:12;;;;;;;13.32;4.00;;;;;;;-0.11;79.47;102343.16;6207304;22;20001;-82
2021/03/06 02:22:06;;;;;;;13.77;4.40;;;;;;;-0.55;80.01;102340.50;6242489;22;20023;-83
2021/03/06 02:25:02;;;;;;;14.32;4.50;;;;;;;-0.19;79.88;102332.19;6242471;22;20013;-84
2021/03/06 02:30:26;;;;;;;19.52;5.03;;;;;;;0.57;77.48;102324.00;6221967;22;20008;-83
2021/03/06 02:32:52;;;;;;;15.48;4.65;;;;;;;-0.66;78.63;102206.31;6255411;22;20020;-84
2021/03/06 02:43:05;;;;;;;15.75;4.82;;;;;;;-0.50;76.45;102138.34;6229968;22;20058;-83
2021/03/06 02:45:32;;;;;;;16.33;4.45;;;;;;;-0.32;78.99;102310.91;6272489;22;20060;-84
2021/03/06 02:47:58;;;;;;;19.00;4.97;;;;;;;-0.84;81.08;102310.47;6273458;22;20016;-84
2021/03/06 02:50:24;;;;;;;14.75;5.38;;;;;;;-1.38;80.84;102193.81;6273141;22;19993;-83
2021/03/06 02:52:50;;;;;;;13.90;4.90;;;;;;;-0.47;78.25;102161.09;6271954;22;20000;-84
2021/03/06 02:55:15;;;;;;;18.45;4.97;;;;;;;-0.38;77.24;102120.00;6272593;22;20004;-84
2021/03/06 03:16:09;;;;;;;16.08;3.95;;;;;;;-0.39;78.66;102113.03;6192790;22;20029;-79
2021/03/06 03:18:44;;;;;;;16.23;3.50;;;;;;;-0.21;77.00;102095.16;6274923;22;19996;-83
2021/03/06 03:26:23;;;;;;;11.20;3.45;;;;;;;-0.52;79.14;102148.16;6262122;22;20012;-83
2021/03/06 03:28:49;;;;;;;14.10;3.60;;;;;;;-0.84;79.41;102112.25;6275357;22;19988;-84
2021/03/06 03:31:17;;;;;;;14.15;4.10;;;;;;;-0.74;79.43;102116.03;6274753;22;19996;-84
2021/03/06 03:33:44;;;;;;;16.10;3.67;;;;;;;-0.51;79.36;102146.38;6273907;22;20016;-83
2021/03/06 03:36:11;;;;;;;13.70;3.58;;;;;;;-0.81;79.59;102085.66;6274206;22;19996;-84
2021/03/06 03:56:43;;;;;;;15.63;3.92;;;;;;;-0.19;77.93;102072.09;6234968;22;20004;-82
2021/03/06 03:59:09;;;;;;;13.38;3.22;;;;;;;-0.59;79.91;102111.63;6273515;22;19992;-84
2021/03/06 04:01:43;;;;;;;13.07;3.72;;;;;;;-0.84;80.47;102080.56;6274971;22;20020;-84
2021/03/06 04:04:29;;;;;;;17.83;4.28;;;;;;;-0.49;79.36;102059.88;6274583;22;20030;-84
2021/03/06 04:06:59;;;;;;;16.08;3.95;;;;;;;-0.17;78.08;102051.66;6274431;22;19996;-84
2021/03/06 04:09:25;;;;;;;20.25;3.90;;;;;;;0.03;78.75;102121.81;6273975;22;20043;-83
2021/03/06 04:11:52;;;;;;;14.43;3.95;;;;;;;-0.10;78.55;102060.91;6274688;22;20011;-84
2021/03/06 04:14:17;;;;;;;12.18;3.60;;;;;;;0.06;77.87;102092.53;6273471;22;19996;-84
2021/03/06 04:19:18;;;;;;;14.35;3.30;;;;;;;-0.86;80.63;102050.72;6241685;22;20004;-85
2021/03/06 04:21:44;;;;;;;19.02;3.00;;;;;;;-0.34;80.08;102101.19;6274468;22;20003;-83
2021/03/06 04:24:10;;;;;;;13.68;3.28;;;;;;;-0.36;79.84;102089.88;6274402;22;20019;-84
2021/03/06 04:29:10;;;;;;;12.32;2.80;;;;;;;-0.05;80.45;102099.34;6273487;22;20059;-83
2021/03/06 04:31:36;;;;;;;17.60;2.78;;;;;;;-0.38;80.63;102099.69;6273284;22;20027;-84
2021/03/06 04:34:02;;;;;;;24.60;2.88;;;;;;;-0.11;80.45;102098.91;6273162;22;19996;-83
2021/03/06 04:36:28;;;;;;;13.30;2.65;;;;;;;0.31;79.90;102139.44;6274029;22;19996;-84
2021/03/06 04:41:29;;;;;;;13.82;2.60;;;;;;;0.24;78.64;102062.22;6222963;22;20034;-83
2021/03/06 04:43:54;;;;;;;11.05;2.50;;;;;;;-0.27;80.24;102062.84;6274352;22;19992;-83
2021/03/06 04:46:21;;;;;;;12.77;2.13;;;;;;;0.04;80.13;102065.34;6274119;22;19996;-84
2021/03/06 04:48:46;;;;;;;16.98;2.70;;;;;;;0.37;77.72;102023.38;6274675;22;19992;-83
2021/03/06 04:51:12;;;;;;;11.65;2.55;;;;;;;-0.17;79.49;102023.41;6273106;22;20000;-82
2021/03/06 04:53:39;;;;;;;11.27;2.60;;;;;;;-0.29;81.56;102077.97;6274806;22;20019;-82
2021/03/06 04:56:05;;;;;;;11.20;2.40;;;;;;;0.26;80.16;102086.78;6274166;22;20014;-82
2021/03/06 05:11:26;;;;;;;15.07;2.60;;;;;;;0.03;80.53;102053.03;6250809;22;20000;-84
2021/03/06 05:13:52;;;;;;;19.17;3.05;;;;;;;0.31;78.42;102013.22;6273465;22;20036;-84
2021/03/06 05:16:18;;;;;;;18.73;3.20;;;;;;;-0.05;79.16;102008.56;6273508;22;19997;-82
2021/03/06 05:18:43;;;;;;;19.25;3.45;;;;;;;0.31;81.74;102182.66;6272569;22;20001;-83
2021/03/06 05:21:09;;;;;;;19.00;4.50;;;;;;;-0.72;82.08;102024.31;6272730;22;19996;-84
2021/03/06 05:23:37;;;;;;;12.75;3.38;;;;;;;-0.37;81.95;102034.44;6272441;22;20023;-83
2021/03/06 05:26:03;;;;;;;18.70;4.57;;;;;;;-0.04;81.07;102031.41;6273477;22;19992;-83
2021/03/06 05:28:29;;;;;;;19.67;5.20;;;;;;;1.12;80.04;102177.25;6272733;22;20024;-84
2021/03/06 05:30:55;;;;;;;24.90;5.65;;;;;;;1.40;79.03;102181.53;6272993;22;19988;-83
2021/03/06 05:33:21;;;;;;;24.40;5.68;;;;;;;0.69;78.05;102012.41;6273240;22;20023;-83
2021/03/06 05:35:47;;;;;;;28.08;6.60;;;;;;;1.83;77.62;102186.50;6273506;22;20012;-82
2021/03/06 05:38:12;;;;;;;25.73;6.78;;;;;;;0.84;77.06;102008.69;6273596;22;20012;-83
2021/03/06 05:40:42;;;;;;;31.25;7.07;;;;;;;0.76;77.40;102013.66;6272983;22;20000;-83
2021/03/06 05:43:08;;;;;;;35.78;7.60;;;;;;;0.64;79.50;102094.84;6272073;22;20004;-82
2021/03/06 05:45:35;;;;;;;29.23;8.02;;;;;;;-0.21;80.49;101982.25;6270919;23;19984;-84
2021/03/06 05:48:02;;;;;;;36.08;8.50;;;;;;;0.02;80.05;102009.00;6271471;23;20042;-83
2021/03/06 05:50:28;;;;;;;35.70;9.20;;;;;;;-0.20;80.12;101976.00;6271902;22;20003;-84
2021/03/06 05:52:57;;;;;;;30.38;9.32;;;;;;;-0.08;81.89;102083.69;6272730;22;19992;-83
2021/03/06 05:55:25;;;;;;;31.23;8.75;;;;;;;-0.49;82.60;102023.72;6273386;22;20000;-83
2021/03/06 05:57:53;;;;;;;36.50;8.50;;;;;;;-0.03;80.50;101959.88;6271474;22;20004;-83
2021/03/06 06:00:20;;;;;;;39.15;9.85;;;;;;;0.64;79.47;102039.22;6272745;22;20059;-83
2021/03/06 06:02:49;;;;;;;31.52;7.78;;;;;;;0.96;77.94;101992.88;6273318;22;19992;-83
2021/03/06 06:05:17;;;;;;;32.22;7.75;;;;;;;0.45;79.24;102002.53;6273692;22;20012;-83
2021/03/06 06:07:44;;;;;;;25.38;6.80;;;;;;;0.50;78.17;101943.09;6272479;22;19992;-82
2021/03/06 06:10:11;;;;;;;29.27;6.80;;;;;;;0.39;78.96;101989.69;6271868;22;20031;-83
2021/03/06 06:12:37;;;;;;;25.15;6.13;;;;;;;0.16;80.40;101993.88;6273169;22;20000;-83
2021/03/06 06:15:03;;;;;;;29.08;6.40;;;;;;;0.26;81.65;102064.75;6272444;22;19992;-84
2021/03/06 06:17:30;;;;;;;33.20;5.65;;;;;;;0.85;78.51;101991.00;6272734;22;20047;-83
2021/03/06 06:19:58;;;;;;;32.20;5.60;;;;;;;0.34;79.36;101938.88;6273140;22;19984;-83
2021/03/06 06:22:27;;;;;;;24.83;5.38;;;;;;;0.19;80.21;101969.03;6273537;22;20009;-83
2021/03/06 06:24:54;;;;;;;23.35;5.18;;;;;;;0.66;81.88;102123.84;6272752;22;19992;-83
2021/03/06 06:27:30;;;;;;;18.77;4.43;;;;;;;1.33;80.65;102119.28;6271826;22;20003;-81
2021/03/06 06:29:57;;;;;;;31.45;5.57;;;;;;;1.82;78.98;102109.63;6272548;22;19992;-83
2021/03/06 06:32:47;;;;;;;24.83;5.20;;;;;;;2.34;78.14;102121.78;6271902;22;20109;-83
2021/03/06 06:35:16;;;;;;;26.20;4.68;;;;;;;0.23;79.72;101926.38;6271572;22;19998;-83
2021/03/06 06:38:02;;;;;;;27.05;5.43;;;;;;;1.14;78.53;101967.75;6273726;22;20015;-84
2021/03/06 06:40:30;;;;;;;27.92;4.38;;;;;;;1.93;79.34;102099.13;6273588;22;20001;-84
2021/03/06 06:42:57;;;;;;;27.15;4.22;;;;;;;0.56;79.79;101935.56;6272067;22;20038;-81
2021/03/06 06:45:23;;;;;;;23.05;4.32;;;;;;;1.88;78.57;102035.72;6262373;22;20031;-82
2021/03/06 06:47:51;;;;;;;21.90;4.25;;;;;;;1.93;77.77;101984.97;6227903;22;20016;-82
2021/03/06 06:50:37;;;;;;;27.08;3.90;;;;;;;1.23;79.62;101987.47;6257252;22;20004;-80
2021/03/06 06:53:03;;;;;;;29.75;4.30;;;;;;;1.41;78.60;101936.59;6253438;23;20023;-80
2021/03/06 06:55:43;;;;;;;22.73;3.50;;;;;;;1.60;78.50;101981.19;6255931;22;20003;-81
2021/03/06 06:58:09;;;;;;;28.38;3.60;;;;;;;1.94;77.72;101975.19;6256662;22;20057;-80
2021/03/06 07:00:35;;;;;;;26.55;3.80;;;;;;;3.21;75.71;102107.22;6259388;22;20008;-81
2021/03/06 07:03:03;;;;;;;30.38;3.63;;;;;;;2.33;78.47;102112.13;6262894;23;20012;-80
2021/03/06 07:05:37;;;;;;;27.60;3.65;;;;;;;1.64;80.73;102082.63;6229495;23;20015;-81
2021/03/06 07:08:08;;;;;;;19.42;2.95;;;;;;;2.28;80.41;102120.41;6253439;22;20000;-81
2021/03/06 07:10:37;;;;;;;19.70;3.08;;;;;;;2.28;80.04;102104.47;6251460;23;20495;-80
2021/03/06 07:13:08;;;;;;;21.20;2.70;;;;;;;2.53;79.38;102111.50;6253930;22;20014;-81
2021/03/06 07:15:35;;;;;;;21.63;2.70;;;;;;;2.18;79.58;102074.25;6260886;22;20011;-80
2021/03/06 07:18:15;;;;;;;20.05;3.15;;;;;;;2.20;80.66;102104.22;6226348;23;20073;-79
2021/03/06 07:20:42;;;;;;;22.30;2.47;;;;;;;2.46;80.72;102104.94;6249605;23;20004;-79
2021/03/06 07:23:13;;;;;;;22.55;2.00;;;;;;;2.78;79.70;102099.88;6248162;23;20015;-81
2021/03/06 07:25:38;;;;;;;16.77;2.15;;;;;;;3.12;78.44;102097.28;6248834;23;20004;-77
2021/03/06 07:28:05;;;;;;;22.30;2.60;;;;;;;3.19;77.88;102092.34;6222875;23;20039;-80
2021/03/06 07:30:30;;;;;;;29.10;2.58;;;;;;;3.26;77.62;102088.22;6247301;23;20087;-79
2021/03/06 07:33:00;;;;;;;21.70;2.70;;;;;;;2.94;78.84;102078.25;6248295;22;20034;-80
2021/03/06 07:35:25;;;;;;;18.67;3.00;;;;;;;3.50;77.58;102078.28;6257285;23;20294;-81
2021/03/06 07:37:58;;;;;;;20.40;2.25;;;;;;;3.59;75.62;102036.81;6255464;23;20026;-82
2021/03/06 07:40:28;;;;;;;18.92;2.40;;;;;;;3.98;74.57;102074.50;6248829;22;20028;-79
2021/03/06 07:42:58;;;;;;;19.27;2.50;;;;;;;4.01;73.68;102058.28;6246896;22;20007;-80
2021/03/06 07:45:25;;;;;;;10.25;1.92;;;;;;;3.64;75.07;102063.03;6248338;23;20082;-80
2021/03/06 07:47:55;;;;;;;24.13;2.45;;;;;;;3.39;76.76;102085.44;6249482;22;20031;-79
2021/03/06 07:50:42;;;;;;;18.25;2.33;;;;;;;3.25;77.16;102078.56;6247183;23;20073;-79
2021/03/06 07:53:08;;;;;;;24.00;2.50;;;;;;;3.49;76.18;102060.66;6247918;22;20043;-79
2021/03/06 07:55:35;;;;;;;16.38;2.80;;;;;;;3.49;75.02;102031.38;6247746;22;19992;-79
2021/03/06 07:58:14;;;;;;;14.20;1.63;;;;;;;3.63;75.20;102069.34;6247626;22;20027;-79
2021/03/06 08:00:54;;;;;;;23.42;3.00;;;;;;;3.45;74.69;102045.06;6249225;22;20008;-80
2021/03/06 08:03:41;;;;;;;15.38;2.38;;;;;;;3.55;74.73;102061.13;6222207;23;20087;-79
2021/03/06 08:06:20;;;;;;;17.17;2.28;;;;;;;3.50;74.38;102056.16;6251384;22;20007;-81
2021/03/06 08:08:45;;;;;;;11.48;2.05;;;;;;;3.37;75.33;102063.44;6256591;23;20067;-81
2021/03/06 08:11:15;;;;;;;15.63;2.70;;;;;;;3.77;74.23;102061.09;6255105;23;20004;-81
2021/03/06 08:13:45;;;;;;;14.18;2.40;;;;;;;3.36;74.78;102030.66;6250252;23;20004;-81
2021/03/06 08:16:23;;;;;;;15.82;2.33;;;;;;;3.83;73.33;102047.28;6252781;23;20007;-80
2021/03/06 08:19:13;;;;;;;11.65;1.80;;;;;;;3.46;73.47;102031.63;6253760;23;20042;-82
2021/03/06 08:21:44;;;;;;;14.27;2.13;;;;;;;3.66;72.73;102055.78;6261697;23;20091;-81
2021/03/06 08:24:16;;;;;;;13.13;1.98;;;;;;;4.01;72.01;102047.63;6269817;22;20019;-83
2021/03/06 08:26:54;;;;;;;14.25;2.13;;;;;;;4.04;71.40;102050.03;6265573;22;20039;-80
2021/03/06 08:29:20;;;;;;;13.80;2.33;;;;;;;4.38;69.31;102049.91;6259980;23;20083;-81
2021/03/06 08:31:53;;;;;;;17.40;2.65;;;;;;;3.74;71.52;102046.22;6257475;23;20012;-81
2021/03/06 08:34:37;;;;;;;15.25;2.25;;;;;;;3.61;72.26;102049.97;6254743;22;20007;-81
2021/03/06 08:37:21;;;;;;;14.52;2.20;;;;;;;3.62;72.43;102044.53;6250876;23;20028;-80
2021/03/06 08:40:00;;;;;;;11.03;2.03;;;;;;;3.63;72.67;102045.38;6253595;22;20011;-81
2021/03/06 08:42:30;;;;;;;16.50;2.33;;;;;;;3.62;71.99;102047.22;6253230;22;20055;-79
2021/03/06 08:45:01;;;;;;;7.32;1.48;;;;;;;3.52;72.36;102023.16;6252350;23;20082;-81
2021/03/06 08:47:28;;;;;;;19.00;2.20;;;;;;;3.71;71.91;102038.50;6254425;22;20048;-80
2021/03/06 08:49:56;;;;;;;11.75;1.52;;;;;;;3.62;71.94;102009.94;6225488;23;20008;-81
2021/03/06 08:52:23;;;;;;;17.20;2.33;;;;;;;3.78;71.51;102035.34;6252742;23;20035;-80
2021/03/06 08:54:49;;;;;;;18.42;2.17;;;;;;;3.81;71.50;102038.59;6226203;23;20073;-81
2021/03/06 08:57:34;;;;;;;14.20;2.00;;;;;;;3.61;71.17;101997.63;6262718;23;19995;-82
2021/03/06 09:00:07;;;;;;;11.15;1.80;;;;;;;3.82;71.12;102026.13;6250306;23;20004;-80
2021/03/06 09:02:33;;;;;;;11.85;1.98;;;;;;;3.81;71.27;102021.75;6250299;23;20105;-81
2021/03/06 09:05:13;;;;;;;18.17;2.33;;;;;;;3.83;70.65;102017.16;6251305;23;20375;-82
2021/03/06 09:07:41;;;;;;;19.92;2.95;;;;;;;3.71;71.31;101992.41;6255273;22;20071;-81
2021/03/06 09:10:28;;;;;;;15.65;2.25;;;;;;;3.89;70.95;102006.00;6254262;23;20072;-80
2021/03/06 09:12:56;;;;;;;16.20;2.65;;;;;;;3.85;70.50;102008.06;6251129;23;20082;-80
2021/03/06 09:15:32;;;;;;;10.77;1.77;;;;;;;3.78;70.40;101990.06;6253583;22;20008;-81
2021/03/06 09:17:59;;;;;;;11.93;2.65;;;;;;;3.99;70.27;102018.44;6256038;23;20399;-82
2021/03/06 09:20:26;;;;;;;11.50;1.70;;;;;;;3.88;70.21;101999.00;6259234;22;20034;-80
2021/03/06 09:22:52;;;;;;;13.38;1.90;;;;;;;3.65;70.12;101964.44;6229807;23;20074;-81
2021/03/06 09:25:47;;;;;;;12.77;1.70;;;;;;;3.92;70.15;102000.44;6205966;23;20012;-82
2021/03/06 09:28:13;;;;;;;9.00;1.90;;;;;;;3.89;69.94;102003.34;6231963;22;20020;-81
2021/03/06 09:30:40;;;;;;;13.98;2.00;;;;;;;3.86;69.81;101996.44;6205520;23;20423;-81
2021/03/06 09:33:28;;;;;;;10.00;1.05;;;;;;;3.83;70.18;101993.19;6255807;22;20000;-81
2021/03/06 09:35:57;;;;;;;15.70;2.58;;;;;;;3.85;69.53;102005.41;6253312;23;20008;-81
2021/03/06 09:38:23;;;;;;;23.25;3.00;;;;;;;3.79;69.99;101995.25;6252212;22;20399;-81
2021/03/06 09:40:48;;;;;;;11.77;2.22;;;;;;;3.88;69.65;102018.47;6253268;22;20000;-81
2021/03/06 09:43:22;;;;;;;14.43;2.28;;;;;;;3.58;69.66;101954.44;6253662;23;20000;-81
2021/03/06 09:45:47;;;;;;;12.38;1.75;;;;;;;3.91;69.40;101991.59;6257433;22;19980;-81
2021/03/06 09:48:15;;;;;;;11.48;2.30;;;;;;;3.91;69.56;101988.09;6257929;23;20031;-82
2021/03/06 09:50:44;;;;;;;11.48;1.98;;;;;;;3.92;69.20;101989.78;6254353;22;20216;-80
2021/03/06 09:53:31;;;;;;;12.68;1.92;;;;;;;3.94;69.73;101998.47;6254111;22;20004;-80
2021/03/06 09:56:11;;;;;;;16.33;1.77;;;;;;;3.98;69.74;101995.44;6234132;23;20034;-81
2021/03/06 09:58:39;;;;;;;8.98;1.70;;;;;;;3.99;70.04;101983.81;6252716;23;20117;-81
2021/03/06 10:01:19;;;;;;;12.00;1.85;;;;;;;4.05;69.38;101984.28;6258896;22;20051;-81
2021/03/06 10:03:46;;;;;;;5.70;1.10;;;;;;;4.11;68.89;101983.78;6254159;22;20004;-80
2021/03/06 10:06:15;;;;;;;11.20;2.00;;;;;;;4.05;68.81;101973.63;6252762;22;20525;-81
2021/03/06 10:08:48;;;;;;;16.15;2.05;;;;;;;4.11;68.65;101986.44;6263716;22;20070;-81
2021/03/06 10:11:14;;;;;;;13.63;1.95;;;;;;;4.08;69.15;101966.22;6256773;22;20292;-81
2021/03/06 10:13:43;;;;;;;19.83;2.28;;;;;;;4.08;68.57;101965.38;6230182;23;20019;-81
2021/03/06 10:16:10;;;;;;;12.63;2.15;;;;;;;4.12;68.83;101965.00;6255510;22;20004;-80
2021/03/06 10:18:39;;;;;;;12.45;1.55;;;;;;;4.21;69.02;101974.88;6250511;23;20034;-80
2021/03/06 10:21:10;;;;;;;15.30;2.33;;;;;;;4.33;68.43;101969.47;6248944;23;20011;-81
2021/03/06 10:23:36;;;;;;;15.40;2.13;;;;;;;4.28;68.10;101977.03;6252688;23;20470;-80
2021/03/06 10:26:31;;;;;;;7.25;1.25;;;;;;;4.29;67.66;101962.72;6251847;23;20008;-80
2021/03/06 10:29:17;;;;;;;12.13;2.05;;;;;;;4.29;67.83;101958.25;6229762;22;20015;-83
2021/03/06 10:31:43;;;;;;;17.00;2.20;;;;;;;4.47;67.36;101969.19;6260457;23;20015;-81
2021/03/06 10:34:28;;;;;;;19.83;2.35;;;;;;;4.41;68.19;101961.69;6257542;23;20004;-82
2021/03/06 10:37:19;;;;;;;14.68;2.00;;;;;;;4.16;67.11;101910.47;6257496;22;20032;-81
2021/03/06 10:40:07;;;;;;;9.80;2.15;;;;;;;4.31;67.07;101958.13;6254451;23;20003;-81
2021/03/06 10:42:46;;;;;;;17.38;2.47;;;;;;;4.52;67.28;101956.28;6228374;23;20008;-81
2021/03/06 10:45:29;;;;;;;12.20;1.92;;;;;;;4.50;66.81;101944.91;6252611;23;20059;-80
2021/03/06 10:47:57;;;;;;;14.00;2.40;;;;;;;4.71;66.77;101952.88;6252385;23;20326;-81
2021/03/06 10:50:30;;;;;;;9.57;1.63;;;;;;;4.58;66.23;101901.63;6258856;23;20051;-81
2021/03/06 10:53:19;;;;;;;11.68;1.63;;;;;;;4.53;66.70;101946.47;6261225;22;20004;-81
2021/03/06 10:55:46;;;;;;;11.30;1.55;;;;;;;4.55;67.77;101952.53;6256314;23;20000;-81
2021/03/06 10:58:12;;;;;;;8.93;1.77;;;;;;;4.74;66.84;101912.63;6252509;23;20410;-80
2021/03/06 11:00:39;;;;;;;11.45;1.90;;;;;;;4.94;66.27;101950.88;6255415;23;20062;-80
2021/03/06 11:03:08;;;;;;;14.35;2.22;;;;;;;5.09;65.49;101951.34;6251519;22;20031;-79
2021/03/06 11:05:34;;;;;;;16.58;2.05;;;;;;;4.94;66.43;101938.41;6250262;22;20034;-79
2021/03/06 11:08:21;;;;;;;14.02;1.25;;;;;;;4.65;66.73;101916.09;6250381;22;20032;-79
2021/03/06 11:10:51;;;;;;;17.05;2.03;;;;;;;4.60;66.76;101908.50;6223151;23;20544;-78
2021/03/06 11:13:18;;;;;;;14.52;2.17;;;;;;;4.82;66.30;101949.28;6254466;22;20015;-80
2021/03/06 11:15:50;;;;;;;13.90;2.22;;;;;;;4.84;66.47;101932.19;6253108;23;20028;-80
2021/03/06 11:18:17;;;;;;;14.40;2.13;;;;;;;4.83;66.49;101914.47;6251084;23;20012;-79
2021/03/06 11:20:43;;;;;;;16.70;2.22;;;;;;;5.12;66.54;101943.09;6226512;23;20012;-79
2021/03/06 11:23:09;;;;;;;10.95;1.67;;;;;;;5.07;66.47;101927.50;6248813;23;20008;-79
2021/03/06 11:25:35;;;;;;;21.67;2.60;;;;;;;5.37;65.14;101931.91;6247210;23;20422;-80
2021/03/06 11:28:06;;;;;;;21.17;2.80;;;;;;;4.84;66.32;101878.00;6248890;22;20032;-81
2021/03/06 11:30:35;;;;;;;15.18;2.00;;;;;;;5.38;64.97;101922.91;6250198;22;20473;-80
2021/03/06 11:33:04;;;;;;;22.65;2.20;;;;;;;5.43;65.35;101925.19;6250293;22;20046;-80
2021/03/06 11:35:30;;;;;;;16.65;2.42;;;;;;;5.33;65.63;101932.31;6248657;23;20398;-80
2021/03/06 11:37:56;;;;;;;15.48;1.77;;;;;;;5.33;65.67;101919.84;6252320;22;20004;-80
2021/03/06 11:40:24;;;;;;;16.05;2.20;;;;;;;5.14;66.07;101901.13;6251739;23;20015;-80
2021/03/06 11:42:51;;;;;;;14.43;2.30;;;;;;;5.34;66.37;101910.84;6247318;23;20008;-80
2021/03/06 11:45:18;;;;;;;19.55;2.75;;;;;;;5.31;66.74;101911.13;6247917;23;20309;-80
2021/03/06 11:47:45;;;;;;;14.00;2.53;;;;;;;5.28;65.79;101890.03;6251534;23;20081;-80
2021/03/06 11:50:14;;;;;;;16.00;2.85;;;;;;;5.36;65.75;101898.22;6256977;22;20390;-79
2021/03/06 11:52:40;;;;;;;15.25;2.53;;;;;;;5.23;66.23;101854.94;6248438;23;20008;-81
2021/03/06 11:55:08;;;;;;;14.95;2.38;;;;;;;5.42;66.46;101886.97;6254722;23;20027;-81
2021/03/06 11:57:34;;;;;;;18.77;2.88;;;;;;;5.26;66.97;101889.31;6204329;23;20015;-80
2021/03/06 12:00:00;;;;;;;16.08;3.03;;;;;;;5.25;67.62;101876.97;6250940;22;20004;-80
2021/03/06 12:02:27;;;;;;;18.23;2.83;;;;;;;5.10;67.32;101847.19;6250411;22;20031;-79
2021/03/06 12:04:52;;;;;;;15.32;1.98;;;;;;;5.32;68.10;101869.25;6250859;22;20004;-81
2021/03/06 12:07:18;;;;;;;16.23;2.38;;;;;;;5.18;68.15;101863.34;6256878;23;20014;-81
2021/03/06 12:09:43;;;;;;;19.95;2.50;;;;;;;4.85;67.99;101826.34;6249635;22;20031;-80
2021/03/06 12:12:09;;;;;;;19.45;2.72;;;;;;;4.83;68.52;101839.81;6221826;23;20405;-80
2021/03/06 12:14:35;;;;;;;18.25;2.58;;;;;;;4.83;68.52;101858.47;6247968;22;20067;-80
2021/03/06 12:17:00;;;;;;;13.13;2.38;;;;;;;4.89;68.94;101873.94;6253389;23;20008;-80
2021/03/06 12:19:26;;;;;;;17.95;2.53;;;;;;;4.96;68.83;101882.22;6225921;23;20307;-80
2021/03/06 12:21:51;;;;;;;17.42;3.05;;;;;;;4.85;68.87;101871.69;6251474;22;20008;-81
2021/03/06 12:24:17;;;;;;;12.57;1.70;;;;;;;4.79;69.12;101869.56;6225227;23;20496;-79
2021/03/06 12:26:42;;;;;;;16.70;2.05;;;;;;;4.40;69.76;101794.75;6252438;22;20012;-79
2021/03/06 12:29:08;;;;;;;24.83;2.83;;;;;;;4.56;69.34;101819.09;6223972;23;20024;-80
2021/03/06 12:31:34;;;;;;;24.83;2.90;;;;;;;4.66;69.11;101835.13;6258726;22;20276;-80
2021/03/06 12:33:59;;;;;;;11.30;1.58;;;;;;;4.65;69.37;101828.13;6221262;23;20004;-79
2021/03/06 12:36:25;;;;;;;16.23;2.72;;;;;;;4.74;69.60;101842.47;6225249;23;20103;-80
2021/03/06 12:38:51;;;;;;;15.15;2.85;;;;;;;4.67;69.01;101820.84;6235653;22;20039;-81
2021/03/06 12:41:17;;;;;;;16.90;2.50;;;;;;;4.66;69.33;101848.44;6231409;23;20370;-81
2021/03/06 12:43:42;;;;;;;10.45;2.10;;;;;;;4.63;69.08;101819.41;6266040;23;20027;-81
2021/03/06 12:46:08;;;;;;;19.38;2.70;;;;;;;4.60;69.72;101828.53;6233488;23;20023;-80
2021/03/06 12:48:33;;;;;;;13.52;1.95;;;;;;;4.50;69.80;101794.81;6251327;23;20502;-80
2021/03/06 12:50:59;;;;;;;17.30;2.33;;;;;;;4.62;69.52;101807.06;6222280;23;20012;-80
2021/03/06 12:53:25;;;;;;;22.27;2.75;;;;;;;4.59;69.58;101789.50;6251560;22;20004;-80
2021/03/06 12:55:50;;;;;;;13.05;2.08;;;;;;;4.69;69.53;101801.03;6225317;23;20004;-80
2021/03/06 12:58:15;;;;;;;20.40;2.83;;;;;;;4.60;70.10;101772.56;6248610;23;20371;-80
2021/03/06 13:00:41;;;;;;;18.35;2.78;;;;;;;4.82;69.75;101786.63;6250901;23;20022;-80
2021/03/06 13:03:07;;;;;;;20.05;2.88;;;;;;;4.71;69.62;101811.59;6252140;23;20468;-80
2021/03/06 13:05:32;;;;;;;16.40;2.42;;;;;;;4.67;69.11;101788.84;6224023;23;20400;-80
2021/03/06 13:07:58;;;;;;;17.65;2.38;;;;;;;4.82;68.22;101786.63;6251025;23;20004;-80
2021/03/06 13:10:24;;;;;;;9.63;1.58;;;;;;;4.70;68.27;101757.41;6250467;22;20011;-81
2021/03/06 13:12:49;;;;;;;11.75;1.83;;;;;;;4.57;66.91;101738.19;6250409;23;20288;-80
2021/03/06 13:15:16;;;;;;;6.55;1.50;;;;;;;4.70;67.26;101749.41;6249196;23;20043;-79
2021/03/06 13:17:43;;;;;;;11.27;2.17;;;;;;;4.93;66.70;101774.03;6248669;23;20022;-81
2021/03/06 13:20:10;;;;;;;16.25;2.28;;;;;;;4.93;66.20;101784.69;6249088;23;20004;-79
2021/03/06 13:22:35;;;;;;;12.55;2.10;;;;;;;4.78;66.35;101753.22;6249021;23;20011;-80
2021/03/06 13:25:01;;;;;;;16.05;2.30;;;;;;;4.75;66.25;101748.16;6247993;23;20007;-80
2021/03/06 13:27:27;;;;;;;15.93;3.00;;;;;;;4.92;66.43;101771.47;6198368;23;20087;-80
2021/03/06 13:29:53;;;;;;;20.42;3.05;;;;;;;4.84;67.15;101788.19;6222336;23;20087;-79
2021/03/06 13:32:18;;;;;;;16.35;2.42;;;;;;;4.77;68.77;101768.38;6222899;23;20062;-80
2021/03/06 13:34:44;;;;;;;22.10;3.70;;;;;;;4.40;69.02;101704.16;6223097;23;20019;-80
2021/03/06 13:37:09;;;;;;;24.40;3.75;;;;;;;4.74;69.29;101754.47;6251918;22;20007;-80
2021/03/06 13:39:35;;;;;;;23.33;2.97;;;;;;;4.70;70.60;101741.44;6223321;23;20015;-80
2021/03/06 13:42:00;;;;;;;24.63;3.92;;;;;;;4.72;70.79;101741.28;6247693;23;20023;-80
2021/03/06 13:44:26;;;;;;;26.10;4.43;;;;;;;4.68;70.63;101746.03;6197839;23;20133;-80
2021/03/06 13:46:51;;;;;;;17.33;2.30;;;;;;;4.54;71.59;101725.13;6225218;23;20012;-80
2021/03/06 13:49:17;;;;;;;26.38;4.05;;;;;;;4.62;71.83;101741.25;6250461;23;20377;-80
2021/03/06 13:51:42;;;;;;;28.38;4.30;;;;;;;4.51;72.17;101728.06;6249850;23;20012;-80
2021/03/06 13:54:08;;;;;;;30.33;4.05;;;;;;;4.63;72.26;101747.41;6251701;22;20012;-81
2021/03/06 13:56:33;;;;;;;20.67;2.60;;;;;;;4.59;71.90;101733.53;6251750;23;20000;-81
2021/03/06 13:58:59;;;;;;;27.95;4.72;;;;;;;4.56;72.15;101735.63;6248810;23;20004;-79
2021/03/06 14:01:24;;;;;;;24.23;3.75;;;;;;;4.48;72.41;101720.34;6248638;23;20399;-81
2021/03/06 14:03:50;;;;;;;25.02;4.00;;;;;;;4.45;73.03;101710.78;6254460;23;20015;-80
2021/03/06 14:06:20;;;;;;;24.60;3.58;;;;;;;4.28;73.74;101676.81;6197989;23;20008;-80
2021/03/06 14:08:45;;;;;;;23.17;3.85;;;;;;;4.48;74.54;101720.34;6221659;23;20078;-80
2021/03/06 14:11:13;;;;;;;36.10;4.45;;;;;;;4.53;74.12;101710.09;6224555;23;20004;-82
2021/03/06 14:13:39;;;;;;;20.83;3.55;;;;;;;4.36;74.73;101684.94;6227678;23;20004;-81
2021/03/06 14:16:05;;;;;;;34.40;4.47;;;;;;;4.44;75.72;101700.28;6248831;23;20018;-80
2021/03/06 14:18:31;;;;;;;20.33;3.90;;;;;;;4.35;75.47;101680.59;6255229;23;20030;-82
2021/03/06 14:20:57;;;;;;;28.63;3.97;;;;;;;4.45;76.30;101704.63;6262635;22;20008;-81
2021/03/06 14:23:22;;;;;;;22.40;2.88;;;;;;;4.27;76.23;101679.59;6206761;23;20008;-81
2021/03/06 14:25:48;;;;;;;29.90;5.32;;;;;;;4.15;76.43;101657.56;6208004;23;20114;-81
2021/03/06 14:28:13;;;;;;;26.05;3.55;;;;;;;3.95;76.87;101633.53;6253455;23;20004;-80
2021/03/06 14:30:39;;;;;;;26.60;3.35;;;;;;;4.33;76.98;101684.38;6258472;23;20022;-81
2021/03/06 14:33:04;;;;;;;37.42;5.13;;;;;;;4.31;76.99;101687.19;6207618;23;20004;-80
2021/03/06 14:35:30;;;;;;;31.40;4.28;;;;;;;4.33;77.44;101684.38;6260483;22;19988;-82